Time;durP1;ratioP1;P1;durP2;ratioP2;P2;SDS_P1;SDS_P2;PMS_P1;PMS_P2;Temp;Humidity;BMP_temperature;BMP_pressure;BME280_temperature;BME280_humidity;BME280_pressure;Samples;Min_cycle;Max_cycle;Signal;HPM_P1;HPM_P2
2021/04/09 00:01:18;;;;;;;;;;;;;;;1.72;87.51;99131.31;5044204;28;19959;-77
2021/04/09 00:03:44;;;;;;;;;;;;;;;1.66;87.73;99132.94;5042861;28;19912;-77
2021/04/09 00:06:09;;;;;;;;;;;;;;;1.80;87.40;99134.72;5044584;28;19916;-77
2021/04/09 00:08:34;;;;;;;;;;;;;;;1.90;87.35;99131.41;5042655;28;20379;-77
2021/04/09 00:11:00;;;;;;;;;;;;;;;1.93;87.04;99128.03;5027123;28;19939;-78
2021/04/09 00:13:25;;;;;;;;;;;;;;;1.93;87.19;99128.88;5041538;28;19920;-78
2021/04/09 00:15:50;;;;;;;;;;;;;;;1.94;86.63;99127.19;5040945;28;20425;-77
2021/04/09 00:18:16;;;;;;;;;;;;;;;1.99;86.71;99126.38;5044225;28;20281;-77
2021/04/09 00:20:41;;;;;;;;;;;;;;;1.97;86.88;99128.06;5027606;28;20030;-78
2021/04/09 00:23:07;;;;;;;;;;;;;;;1.96;87.01;99123.84;5026018;28;20070;-77
2021/04/09 00:25:32;;;;;;;;;;;;;;;2.02;87.10;99121.31;5042059;28;19973;-77
2021/04/09 00:27:57;;;;;;;;;;;;;;;1.97;87.47;99117.06;5043628;28;19920;-77
2021/04/09 00:30:26;;;;;;;;;;;;;;;1.90;87.58;99111.09;5043078;28;20858;-77
2021/04/09 00:32:52;;;;;;;;;;;;;;;2.05;87.63;99101.00;5042612;28;19927;-77
2021/04/09 00:35:17;;;;;;;;;;;;;;;2.04;87.81;99104.38;5043048;28;19932;-77
2021/04/09 00:37:43;;;;;;;;;;;;;;;1.93;88.03;99098.41;5042957;28;19923;-77
2021/04/09 00:40:08;;;;;;;;;;;;;;;1.98;88.08;99093.34;5058951;28;19927;-78
2021/04/09 00:42:34;;;;;;;;;;;;;;;1.91;88.39;99089.94;5041747;28;19965;-77
2021/04/09 00:44:59;;;;;;;;;;;;;;;1.90;88.57;99095.00;5042458;28;20278;-78
2021/04/09 00:47:25;;;;;;;;;;;;;;;1.95;88.32;99096.72;5042877;28;19916;-77
2021/04/09 00:49:50;;;;;;;;;;;;;;;1.95;88.54;99089.09;5027405;28;20774;-78
2021/04/09 00:52:15;;;;;;;;;;;;;;;1.98;88.76;99094.19;5058700;28;19924;-77
2021/04/09 00:54:41;;;;;;;;;;;;;;;2.08;88.60;99085.78;5042836;28;19926;-77
2021/04/09 00:57:06;;;;;;;;;;;;;;;1.93;88.77;99088.25;5043167;28;19924;-77
2021/04/09 00:59:31;;;;;;;;;;;;;;;1.96;88.82;99085.75;5042623;28;19981;-77
2021/04/09 01:01:57;;;;;;;;;;;;;;;2.07;89.00;99078.97;5043366;28;19987;-77
2021/04/09 01:04:22;;;;;;;;;;;;;;;2.02;88.79;99078.13;5039262;28;19917;-77
2021/04/09 01:06:47;;;;;;;;;;;;;;;2.04;88.89;99073.91;5041063;28;19927;-77
2021/04/09 01:09:13;;;;;;;;;;;;;;;2.09;88.77;99067.13;5026455;28;19927;-78
2021/04/09 01:11:38;;;;;;;;;;;;;;;2.04;88.40;99057.81;5024457;28;19931;-78
2021/04/09 01:14:03;;;;;;;;;;;;;;;2.21;88.09;99057.84;5054430;28;20341;-77
2021/04/09 01:16:32;;;;;;;;;;;;;;;2.17;88.04;99053.63;5043376;28;19952;-78
2021/04/09 01:19:02;;;;;;;;;;;;;;;2.25;88.08;99052.78;5042020;28;21062;-78
2021/04/09 01:21:33;;;;;;;;;;;;;;;2.18;88.21;99050.22;5042297;28;20421;-77
2021/04/09 01:23:59;;;;;;;;;;;;;;;2.20;88.28;99044.31;5058085;28;20370;-78
2021/04/09 01:26:27;;;;;;;;;;;;;;;2.14;88.82;99041.75;5060563;28;19923;-78
2021/04/09 01:29:11;;;;;;;;;;;;;;;2.12;89.03;99040.03;5061106;28;19967;-78
2021/04/09 01:31:42;;;;;;;;;;;;;;;2.09;89.29;99034.09;5058026;28;19931;-77
2021/04/09 01:34:08;;;;;;;;;;;;;;;2.13;89.82;99034.13;5043263;28;20584;-78
2021/04/09 01:36:36;;;;;;;;;;;;;;;1.99;89.87;99029.84;5025260;28;19916;-78
2021/04/09 01:39:40;;;;;;;;;;;;;;;2.02;90.19;99032.41;5040193;28;20376;-77
2021/04/09 01:42:06;;;;;;;;;;;;;;;2.24;89.79;99024.84;4948132;28;20261;-77
2021/04/09 01:44:32;;;;;;;;;;;;;;;2.26;89.53;99024.00;4934416;28;19918;-77
2021/04/09 01:46:57;;;;;;;;;;;;;;;2.24;88.99;99025.69;4983379;28;19924;-77
2021/04/09 01:49:23;;;;;;;;;;;;;;;2.31;88.77;99021.47;5059150;28;19970;-78
2021/04/09 01:51:49;;;;;;;;;;;;;;;2.29;88.42;99018.06;5038389;28;20021;-78
2021/04/09 01:54:14;;;;;;;;;;;;;;;2.40;88.64;99023.19;5020196;28;19967;-78
2021/04/09 01:56:40;;;;;;;;;;;;;;;2.28;89.04;99011.28;5036628;28;19932;-77
2021/04/09 01:59:06;;;;;;;;;;;;;;;2.32;89.29;99009.59;5023192;28;19977;-77
2021/04/09 02:01:32;;;;;;;;;;;;;;;2.36;88.78;99004.53;5017011;28;19928;-78
2021/04/09 02:03:57;;;;;;;;;;;;;;;2.31;88.69;98990.97;5040220;28;19916;-78
2021/04/09 02:06:22;;;;;;;;;;;;;;;2.30;88.59;98995.22;5039774;28;20789;-77
2021/04/09 02:08:48;;;;;;;;;;;;;;;2.37;88.65;98992.66;5037958;28;19923;-78
2021/04/09 02:11:13;;;;;;;;;;;;;;;2.40;88.47;98988.44;5038788;28;20374;-78
2021/04/09 02:13:38;;;;;;;;;;;;;;;2.40;88.31;98990.13;5020289;28;19927;-78
2021/04/09 02:16:04;;;;;;;;;;;;;;;2.41;88.39;98987.56;5039849;28;19975;-78
2021/04/09 02:18:29;;;;;;;;;;;;;;;2.35;88.28;98987.59;5021128;28;19917;-79
2021/04/09 02:21:01;;;;;;;;;;;;;;;2.32;88.13;98974.88;5054016;28;19919;-78
2021/04/09 02:23:27;;;;;;;;;;;;;;;2.37;87.98;98980.78;5038184;28;20031;-78
2021/04/09 02:25:59;;;;;;;;;;;;;;;2.36;88.40;98975.72;5037144;28;20429;-77
2021/04/09 02:28:25;;;;;;;;;;;;;;;2.32;88.11;98979.94;5039862;28;20381;-78
2021/04/09 02:31:12;;;;;;;;;;;;;;;2.38;88.24;98972.34;5038935;28;19924;-78
2021/04/09 02:33:35;;;;;;;;;;;;;;;2.39;88.46;98968.94;5039885;28;20928;-78
2021/04/09 02:36:11;;;;;;;;;;;;;;;2.50;88.18;98956.25;5037805;28;19917;-78
2021/04/09 02:38:37;;;;;;;;;;;;;;;2.43;87.99;98952.00;5017759;28;19971;-78
2021/04/09 02:41:02;;;;;;;;;;;;;;;2.42;88.08;98958.78;5038252;28;19920;-78
2021/04/09 02:43:28;;;;;;;;;;;;;;;2.44;88.13;98952.00;5037530;28;20000;-78
2021/04/09 02:45:54;;;;;;;;;;;;;;;2.43;87.98;98942.69;5020459;28;19921;-78
2021/04/09 02:48:20;;;;;;;;;;;;;;;2.38;87.95;98946.94;5040075;28;19975;-78
2021/04/09 02:50:45;;;;;;;;;;;;;;;2.49;87.73;98945.22;5038331;28;19975;-78
2021/04/09 02:53:14;;;;;;;;;;;;;;;2.47;88.30;98941.84;5037232;28;19932;-78
2021/04/09 02:55:41;;;;;;;;;;;;;;;2.43;88.33;98947.75;5036470;28;19923;-77
2021/04/09 02:58:07;;;;;;;;;;;;;;;2.46;88.17;98945.25;5014238;28;20325;-78
2021/04/09 03:00:33;;;;;;;;;;;;;;;2.46;88.23;98937.63;5025237;28;19975;-76
2021/04/09 03:02:58;;;;;;;;;;;;;;;2.54;88.18;98942.69;5036560;28;20015;-76
2021/04/09 03:05:24;;;;;;;;;;;;;;;2.38;88.33;98935.91;5039944;28;20560;-77
2021/04/09 03:07:49;;;;;;;;;;;;;;;2.43;88.93;98936.75;5039966;28;19917;-77
2021/04/09 03:10:15;;;;;;;;;;;;;;;2.51;88.92;98928.28;5040219;28;19923;-77
2021/04/09 03:12:41;;;;;;;;;;;;;;;2.34;89.36;98926.59;5042060;28;19952;-80
2021/04/09 03:15:07;;;;;;;;;;;;;;;2.37;89.44;98927.44;5042460;28;19921;-78
2021/04/09 03:17:39;;;;;;;;;;;;;;;2.46;89.48;98917.28;5041518;28;19959;-78
2021/04/09 03:20:06;;;;;;;;;;;;;;;2.51;89.24;98915.56;5041512;28;19940;-77
2021/04/09 03:22:31;;;;;;;;;;;;;;;2.48;89.37;98918.09;5042044;28;19920;-78
2021/04/09 03:24:56;;;;;;;;;;;;;;;2.43;89.65;98914.72;5041977;28;19921;-77
2021/04/09 03:27:22;;;;;;;;;;;;;;;2.49;89.17;98912.19;5039301;28;19917;-77
2021/04/09 03:29:47;;;;;;;;;;;;;;;2.62;88.87;98919.78;5040151;28;20003;-77
2021/04/09 03:32:12;;;;;;;;;;;;;;;2.61;88.92;98918.09;5041668;28;20659;-78
2021/04/09 03:34:41;;;;;;;;;;;;;;;2.52;89.42;98916.41;5022353;28;19920;-77
2021/04/09 03:37:06;;;;;;;;;;;;;;;2.55;89.61;98918.09;5019793;28;19920;-77
2021/04/09 03:39:32;;;;;;;;;;;;;;;2.74;89.15;98914.69;5040854;28;20278;-78
2021/04/09 03:41:57;;;;;;;;;;;;;;;2.62;89.30;98910.50;5041336;28;19913;-77
2021/04/09 03:44:22;;;;;;;;;;;;;;;2.60;89.25;98906.22;5039584;28;20459;-77
2021/04/09 03:46:48;;;;;;;;;;;;;;;2.53;89.55;98904.53;5039759;28;19924;-77
2021/04/09 03:49:13;;;;;;;;;;;;;;;2.54;90.17;98906.25;5039500;28;19913;-77
2021/04/09 03:51:38;;;;;;;;;;;;;;;2.67;89.90;98907.94;5024977;28;19925;-77
2021/04/09 03:54:04;;;;;;;;;;;;;;;2.62;89.83;98899.44;5041209;28;20326;-77
2021/04/09 03:56:29;;;;;;;;;;;;;;;2.63;89.55;98901.16;5040550;28;19917;-77
2021/04/09 03:58:54;;;;;;;;;;;;;;;2.71;89.26;98905.38;5022451;28;19916;-77
2021/04/09 04:01:19;;;;;;;;;;;;;;;2.67;89.07;98907.94;5039398;28;20379;-78
2021/04/09 04:03:48;;;;;;;;;;;;;;;2.64;88.72;98903.69;5039948;28;19917;-77
2021/04/09 04:06:14;;;;;;;;;;;;;;;2.71;88.73;98905.38;5040283;28;20405;-77
2021/04/09 04:08:39;;;;;;;;;;;;;;;2.79;88.41;98897.72;5041114;28;20015;-77
2021/04/09 04:11:04;;;;;;;;;;;;;;;2.71;88.45;98904.50;5040574;28;20649;-77
2021/04/09 04:13:29;;;;;;;;;;;;;;;2.72;88.38;98896.91;5039669;28;20249;-78
2021/04/09 04:15:55;;;;;;;;;;;;;;;2.85;87.91;98899.41;5040652;28;20513;-76
2021/04/09 04:18:20;;;;;;;;;;;;;;;2.87;87.54;98901.13;5023592;28;19916;-77
2021/04/09 04:20:45;;;;;;;;;;;;;;;2.78;88.16;98893.47;5023574;28;19921;-77
2021/04/09 04:23:11;;;;;;;;;;;;;;;2.86;87.69;98893.47;5040104;28;19924;-77
2021/04/09 04:25:36;;;;;;;;;;;;;;;2.95;87.96;98887.53;5038600;28;19927;-77
2021/04/09 04:28:01;;;;;;;;;;;;;;;2.86;88.13;98889.22;5040115;28;19920;-77
2021/04/09 04:30:27;;;;;;;;;;;;;;;2.83;87.94;98891.78;5041550;28;19917;-77
2021/04/09 04:32:52;;;;;;;;;;;;;;;2.87;87.86;98884.97;5041627;28;19923;-78
2021/04/09 04:35:17;;;;;;;;;;;;;;;2.89;87.90;98889.22;5022063;28;19921;-77
2021/04/09 04:37:42;;;;;;;;;;;;;;;2.82;88.51;98882.44;5039308;28;19917;-77
2021/04/09 04:40:08;;;;;;;;;;;;;;;2.94;88.25;98889.19;5040658;28;19988;-77
2021/04/09 04:42:33;;;;;;;;;;;;;;;2.85;88.27;98877.38;5039891;28;19985;-77
2021/04/09 04:44:59;;;;;;;;;;;;;;;2.82;89.14;98882.44;5023218;28;20279;-77
2021/04/09 04:47:24;;;;;;;;;;;;;;;2.84;88.91;98879.91;5038735;28;19913;-77
2021/04/09 04:49:49;;;;;;;;;;;;;;;2.78;89.52;98880.75;5039701;28;20011;-77
2021/04/09 04:52:15;;;;;;;;;;;;;;;2.78;89.15;98869.75;5022946;28;19924;-77
2021/04/09 04:54:40;;;;;;;;;;;;;;;2.80;88.79;98865.50;5039509;28;19917;-77
2021/04/09 04:57:05;;;;;;;;;;;;;;;2.83;88.36;98868.91;5039133;28;19928;-78
2021/04/09 04:59:31;;;;;;;;;;;;;;;2.84;88.32;98869.75;5039070;28;20343;-77
2021/04/09 05:01:56;;;;;;;;;;;;;;;2.88;88.26;98869.72;5039007;28;20398;-77
2021/04/09 05:04:21;;;;;;;;;;;;;;;2.86;88.22;98863.78;5041242;28;20007;-78
2021/04/09 05:06:47;;;;;;;;;;;;;;;2.83;88.50;98862.94;5038790;28;20989;-78
2021/04/09 05:09:12;;;;;;;;;;;;;;;2.87;88.44;98869.72;5039492;28;19952;-77
2021/04/09 05:11:37;;;;;;;;;;;;;;;2.84;88.67;98860.41;5038824;28;20004;-77
2021/04/09 05:14:03;;;;;;;;;;;;;;;2.96;88.47;98861.22;5022984;28;19913;-77
2021/04/09 05:16:28;;;;;;;;;;;;;;;3.09;88.03;98860.31;5040736;28;20035;-77
2021/04/09 05:18:53;;;;;;;;;;;;;;;3.02;87.77;98861.22;5044794;28;19949;-77
2021/04/09 05:21:19;;;;;;;;;;;;;;;3.02;87.70;98861.22;5020167;28;19921;-77
2021/04/09 05:23:44;;;;;;;;;;;;;;;3.06;87.44;98865.44;5040646;28;20404;-78
2021/04/09 05:26:09;;;;;;;;;;;;;;;3.08;87.61;98863.72;5038778;28;19917;-77
2021/04/09 05:28:35;;;;;;;;;;;;;;;3.10;87.49;98856.91;5038582;28;19921;-77
2021/04/09 05:31:00;;;;;;;;;;;;;;;3.16;87.38;98856.91;5038112;28;19921;-78
2021/04/09 05:33:25;;;;;;;;;;;;;;;3.12;87.19;98860.31;5021722;28;19966;-77
2021/04/09 05:35:51;;;;;;;;;;;;;;;3.19;87.14;98851.78;5039247;28;19928;-77
2021/04/09 05:38:16;;;;;;;;;;;;;;;3.13;87.21;98852.66;5036688;28;19916;-77
2021/04/09 05:40:41;;;;;;;;;;;;;;;3.20;87.12;98848.41;5040344;28;19963;-77
2021/04/09 05:43:07;;;;;;;;;;;;;;;3.20;87.00;98847.56;5038125;28;19913;-76
2021/04/09 05:45:32;;;;;;;;;;;;;;;3.22;86.82;98848.41;5023324;28;19916;-77
2021/04/09 05:48:05;;;;;;;;;;;;;;;3.40;86.77;98860.16;5036624;28;19921;-77
2021/04/09 05:50:31;;;;;;;;;;;;;;;3.42;86.34;98853.38;5036009;28;20066;-77
2021/04/09 05:52:56;;;;;;;;;;;;;;;3.38;86.57;98851.72;5020917;28;19995;-76
2021/04/09 05:55:22;;;;;;;;;;;;;;;3.38;86.77;98851.72;5020399;28;19917;-77
2021/04/09 05:57:47;;;;;;;;;;;;;;;3.35;86.52;98848.34;5033679;28;19990;-77
2021/04/09 06:00:13;;;;;;;;;;;;;;;3.54;86.05;98848.22;5019778;28;20012;-78
2021/04/09 06:02:39;;;;;;;;;;;;;;;3.62;86.18;98838.81;5034918;28;20437;-77
2021/04/09 06:05:05;;;;;;;;;;;;;;;3.55;85.98;98844.81;5016490;28;19931;-78
2021/04/09 06:07:31;;;;;;;;;;;;;;;3.69;85.77;98843.00;5018981;28;20351;-78
2021/04/09 06:09:56;;;;;;;;;;;;;;;3.71;85.92;98841.31;5039328;28;19912;-78
2021/04/09 06:12:21;;;;;;;;;;;;;;;3.82;85.41;98842.94;5036676;28;19928;-78
2021/04/09 06:14:47;;;;;;;;;;;;;;;3.83;85.25;98854.81;5021326;28;19920;-78
2021/04/09 06:17:12;;;;;;;;;;;;;;;3.85;84.74;98850.56;5035576;28;20696;-78
2021/04/09 06:19:38;;;;;;;;;;;;;;;3.91;84.73;98843.72;5054488;28;19928;-78
2021/04/09 06:22:03;;;;;;;;;;;;;;;3.99;85.13;98851.28;5033879;28;20058;-77
2021/04/09 06:24:28;;;;;;;;;;;;;;;4.04;84.85;98856.34;5036898;28;20263;-79
2021/04/09 06:26:54;;;;;;;;;;;;;;;4.11;84.71;98852.91;5037111;28;19928;-78
2021/04/09 06:29:19;;;;;;;;;;;;;;;4.14;84.58;98851.16;5017497;28;19921;-77
2021/04/09 06:31:44;;;;;;;;;;;;;;;4.23;84.20;98854.50;5033829;28;19928;-78
2021/04/09 06:34:10;;;;;;;;;;;;;;;4.40;83.75;98852.63;5036640;28;19936;-78
2021/04/09 06:36:36;;;;;;;;;;;;;;;4.32;83.72;98850.16;5022202;28;20361;-77
2021/04/09 06:39:01;;;;;;;;;;;;;;;4.46;83.19;98862.78;5037722;28;19921;-78
2021/04/09 06:41:26;;;;;;;;;;;;;;;4.50;83.38;98854.25;5038718;28;19917;-78
2021/04/09 06:43:52;;;;;;;;;;;;;;;4.60;83.73;98862.63;5038045;28;19916;-77
2021/04/09 06:46:17;;;;;;;;;;;;;;;4.77;83.36;98857.38;5021574;28;20011;-79
2021/04/09 06:48:43;;;;;;;;;;;;;;;4.74;82.89;98857.38;5037394;28;19952;-78
2021/04/09 06:51:09;;;;;;;;;;;;;;;4.69;82.76;98854.06;5020370;28;19931;-78
2021/04/09 06:53:34;;;;;;;;;;;;;;;4.91;82.86;98849.56;5037533;28;19995;-77
2021/04/09 06:56:00;;;;;;;;;;;;;;;5.05;82.12;98846.84;5036432;28;19929;-79
2021/04/09 06:58:25;;;;;;;;;;;;;;;5.03;81.90;98847.69;5036903;28;20326;-77
2021/04/09 07:00:51;;;;;;;;;;;;;;;5.14;81.56;98837.38;5020227;28;19925;-79
2021/04/09 07:03:16;;;;;;;;;;;;;;;5.29;81.52;98838.03;5036064;28;19941;-77
2021/04/09 07:05:41;;;;;;;;;;;;;;;5.38;81.73;98843.88;5036713;28;19916;-77
2021/04/09 07:08:07;;;;;;;;;;;;;;;5.71;81.20;98840.84;5038446;28;19999;-78
2021/04/09 07:10:32;;;;;;;;;;;;;;;5.78;80.31;98839.88;5035206;28;19929;-78
2021/04/09 07:13:01;;;;;;;;;;;;;;;6.08;79.83;98833.47;5037523;28;19995;-79
2021/04/09 07:15:26;;;;;;;;;;;;;;;6.14;78.81;98838.50;5037173;28;20000;-77
2021/04/09 07:17:51;;;;;;;;;;;;;;;6.28;78.52;98826.31;5037701;28;20016;-78
2021/04/09 07:20:21;;;;;;;;;;;;;;;6.18;78.02;98837.56;5039243;28;19921;-79
2021/04/09 07:22:53;;;;;;;;;;;;;;;6.28;77.65;98831.41;5035811;28;20309;-78
2021/04/09 07:25:19;;;;;;;;;;;;;;;6.40;77.79;98832.06;5036776;28;20850;-78
2021/04/09 07:27:45;;;;;;;;;;;;;;;6.42;76.21;98832.91;5036520;28;19917;-78
2021/04/09 07:30:11;;;;;;;;;;;;;;;6.51;75.74;98837.84;5014216;28;20397;-78
2021/04/09 07:32:36;;;;;;;;;;;;;;;6.35;73.64;98831.31;5035711;28;19931;-78
2021/04/09 07:35:13;;;;;;;;;;;;;;;6.74;73.20;98829.75;5037622;28;20568;-78
2021/04/09 07:37:57;;;;;;;;;;;;;;;7.05;72.87;98822.31;5034546;28;19927;-78
2021/04/09 07:40:23;;;;;;;;;;;;;;;7.23;71.43;98827.88;5034896;28;20024;-78
2021/04/09 07:42:48;;;;;;;;;;;;;;;7.33;70.41;98819.16;5036922;28;20540;-79
2021/04/09 07:45:14;;;;;;;;;;;;;;;7.33;69.61;98821.72;5033492;28;19928;-78
2021/04/09 07:47:40;;;;;;;;;;;;;;;7.66;68.91;98811.56;5037198;28;20404;-78
2021/04/09 07:50:12;;;;;;;;;;;;;;;7.24;66.71;98824.47;5037090;28;19921;-77
2021/04/09 07:52:45;;;;;;;;;;;;;;;7.89;66.04;98814.44;5037633;28;19962;-78
2021/04/09 07:55:20;;;;;;;;;;;;;;;8.16;64.26;98807.81;5040088;28;19917;-78
2021/04/09 07:57:45;;;;;;;;;;;;;;;8.21;66.71;98815.38;5038258;28;19912;-77
2021/04/09 08:00:17;;;;;;;;;;;;;;;8.11;67.77;98804.50;5036721;28;19924;-78
2021/04/09 08:02:42;;;;;;;;;;;;;;;8.04;66.97;98807.25;5055646;28;19923;-78
2021/04/09 08:05:08;;;;;;;;;;;;;;;8.23;67.72;98808.47;5038111;28;19920;-77
2021/04/09 08:07:34;;;;;;;;;;;;;;;8.55;66.66;98804.25;5042164;28;20342;-78
2021/04/09 08:09:59;;;;;;;;;;;;;;;8.78;64.39;98807.03;5041789;28;19996;-77
2021/04/09 08:12:28;;;;;;;;;;;;;;;8.12;65.38;98795.94;5024984;28;19932;-77
2021/04/09 08:14:54;;;;;;;;;;;;;;;8.07;62.13;98802.03;5035088;28;19920;-79
2021/04/09 08:17:21;;;;;;;;;;;;;;;8.35;62.66;98808.16;5040749;28;19916;-79
2021/04/09 08:19:51;;;;;;;;;;;;;;;8.27;62.41;98804.09;5037628;28;19990;-77
2021/04/09 08:22:16;;;;;;;;;;;;;;;8.59;62.71;98803.28;5040774;28;19920;-79
2021/04/09 08:24:42;;;;;;;;;;;;;;;8.65;62.95;98810.81;5040027;28;19912;-78
2021/04/09 08:27:07;;;;;;;;;;;;;;;8.42;61.37;98815.75;5040032;28;19938;-78
2021/04/09 08:29:33;;;;;;;;;;;;;;;8.34;62.14;98816.72;5039128;28;19916;-77
2021/04/09 08:32:02;;;;;;;;;;;;;;;9.08;63.07;98806.22;5040913;28;19931;-80
2021/04/09 08:34:27;;;;;;;;;;;;;;;8.90;60.99;98805.84;5054990;28;19913;-79
2021/04/09 08:36:53;;;;;;;;;;;;;;;8.85;60.79;98806.84;5023304;28;20400;-78
2021/04/09 08:39:18;;;;;;;;;;;;;;;9.17;59.84;98804.22;5039872;28;19921;-79
2021/04/09 08:41:44;;;;;;;;;;;;;;;8.64;60.71;98809.13;5058776;28;19927;-77
2021/04/09 08:44:10;;;;;;;;;;;;;;;9.18;62.74;98810.19;5041179;28;19916;-79
2021/04/09 08:46:36;;;;;;;;;;;;;;;9.53;60.47;98809.13;5041792;28;19912;-78
2021/04/09 08:49:01;;;;;;;;;;;;;;;8.70;60.06;98811.53;5038975;28;19916;-78
2021/04/09 08:51:27;;;;;;;;;;;;;;;9.56;61.18;98793.63;5027105;28;19947;-79
2021/04/09 08:53:52;;;;;;;;;;;;;;;9.71;59.44;98805.13;5014062;28;19924;-78
2021/04/09 08:56:33;;;;;;;;;;;;;;;9.61;60.64;98799.44;5036331;28;19925;-78
2021/04/09 08:58:59;;;;;;;;;;;;;;;10.46;58.30;98799.25;5033339;28;19921;-79
2021/04/09 09:01:24;;;;;;;;;;;;;;;9.74;58.17;98806.75;5018684;28;20401;-79
2021/04/09 09:03:49;;;;;;;;;;;;;;;10.11;59.40;98801.28;5035838;28;20394;-78
2021/04/09 09:06:15;;;;;;;;;;;;;;;10.14;60.08;98805.47;5035903;28;19921;-78
2021/04/09 09:08:43;;;;;;;;;;;;;;;9.67;63.22;98807.84;5033339;28;19928;-78
2021/04/09 09:11:09;;;;;;;;;;;;;;;9.93;60.88;98813.00;5031471;28;19921;-78
2021/04/09 09:13:41;;;;;;;;;;;;;;;9.55;60.53;98801.38;5032126;28;19920;-78
2021/04/09 09:16:16;;;;;;;;;;;;;;;9.93;59.94;98799.31;5031718;28;20382;-77
2021/04/09 09:18:51;;;;;;;;;;;;;;;10.51;57.33;98801.69;5033155;28;19928;-78
2021/04/09 09:21:18;;;;;;;;;;;;;;;10.18;61.57;98805.31;5029508;28;19917;-78
2021/04/09 09:23:56;;;;;;;;;;;;;;;9.32;62.49;98808.03;5032036;28;19920;-77
2021/04/09 09:26:32;;;;;;;;;;;;;;;10.18;62.87;98800.19;5033656;28;20016;-78
2021/04/09 09:29:16;;;;;;;;;;;;;;;9.67;61.00;98803.56;5033840;28;19917;-78
2021/04/09 09:31:55;;;;;;;;;;;;;;;9.84;63.08;98808.16;5034763;28;20047;-77
2021/04/09 09:34:21;;;;;;;;;;;;;;;9.85;64.80;98802.13;5036738;28;19928;-78
2021/04/09 09:37:07;;;;;;;;;;;;;;;9.96;61.12;98810.31;5039442;28;19917;-78
2021/04/09 09:39:36;;;;;;;;;;;;;;;9.99;61.11;98805.09;5039387;28;19967;-78
2021/04/09 09:42:03;;;;;;;;;;;;;;;9.86;62.87;98803.81;5035038;28;19970;-78
2021/04/09 09:44:31;;;;;;;;;;;;;;;9.62;65.43;98798.56;5038552;28;19975;-78
2021/04/09 09:47:03;;;;;;;;;;;;;;;9.83;64.46;98799.63;5038846;28;19916;-79
2021/04/09 09:49:33;;;;;;;;;;;;;;;9.77;61.65;98799.81;5038796;28;19982;-79
2021/04/09 09:51:58;;;;;;;;;;;;;;;10.18;62.56;98794.19;5038193;28;19924;-78
2021/04/09 09:54:28;;;;;;;;;;;;;;;10.30;60.59;98793.81;5055701;28;19932;-79
2021/04/09 09:56:53;;;;;;;;;;;;;;;10.92;59.96;98781.31;5037006;28;19917;-81
2021/04/09 09:59:19;;;;;;;;;;;;;;;10.68;59.37;98787.31;5021455;28;19932;-81
2021/04/09 10:01:52;;;;;;;;;;;;;;;10.99;57.92;98788.78;5041874;28;19963;-80
2021/04/09 10:04:17;;;;;;;;;;;;;;;11.35;58.40;98784.88;5039892;28;19920;-79
2021/04/09 10:06:49;;;;;;;;;;;;;;;11.89;62.10;98783.59;5020859;28;20409;-79
2021/04/09 10:09:21;;;;;;;;;;;;;;;11.54;60.82;98785.84;5026873;28;19944;-79
2021/04/09 10:11:46;;;;;;;;;;;;;;;11.19;60.69;98792.34;5024280;28;21236;-77
2021/04/09 10:14:12;;;;;;;;;;;;;;;10.58;62.44;98792.84;5041974;28;19920;-79
2021/04/09 10:16:37;;;;;;;;;;;;;;;10.20;59.65;98800.13;5041787;28;19917;-78
2021/04/09 10:19:06;;;;;;;;;;;;;;;10.71;59.24;98798.41;5042374;28;20664;-77
2021/04/09 10:21:33;;;;;;;;;;;;;;;10.95;62.05;98799.22;5040528;28;19962;-79
2021/04/09 10:24:09;;;;;;;;;;;;;;;10.57;59.75;98792.00;5041065;28;20387;-78
2021/04/09 10:26:35;;;;;;;;;;;;;;;10.81;62.65;98795.44;5041267;28;19967;-79
2021/04/09 10:29:00;;;;;;;;;;;;;;;11.29;62.53;98797.09;5023108;28;19920;-78
2021/04/09 10:31:26;;;;;;;;;;;;;;;11.90;58.51;98793.00;5039701;28;19995;-78
2021/04/09 10:33:52;;;;;;;;;;;;;;;10.71;60.76;98801.81;5023726;28;19963;-80
2021/04/09 10:36:17;;;;;;;;;;;;;;;11.42;62.72;98792.28;5024690;28;20419;-78
2021/04/09 10:38:42;;;;;;;;;;;;;;;11.40;57.47;98790.66;5039708;28;19999;-78
2021/04/09 10:41:08;;;;;;;;;;;;;;;11.44;54.67;98780.19;5024091;28;19920;-78
2021/04/09 10:43:35;;;;;;;;;;;;;;;12.75;57.22;98787.72;5038645;28;19913;-77
2021/04/09 10:46:13;;;;;;;;;;;;;;;11.60;53.81;98783.00;5023994;28;19925;-79
2021/04/09 10:48:39;;;;;;;;;;;;;;;12.80;55.85;98785.75;5016964;28;20038;-78
2021/04/09 10:51:04;;;;;;;;;;;;;;;11.41;53.52;98779.47;5049015;28;19929;-77
2021/04/09 10:53:30;;;;;;;;;;;;;;;12.00;54.89;98773.69;5044200;28;19997;-76
2021/04/09 10:56:05;;;;;;;;;;;;;;;12.01;55.36;98770.19;5042547;28;19912;-76
2021/04/09 10:58:30;;;;;;;;;;;;;;;12.76;51.67;98771.28;5040052;28;19924;-77
2021/04/09 11:00:56;;;;;;;;;;;;;;;12.83;51.90;98775.28;5059101;28;20336;-78
2021/04/09 11:03:21;;;;;;;;;;;;;;;12.16;52.96;98779.06;5039857;28;20438;-78
2021/04/09 11:05:46;;;;;;;;;;;;;;;12.21;56.39;98781.44;5059359;28;19921;-77
2021/04/09 11:08:12;;;;;;;;;;;;;;;10.94;57.59;98775.22;5039085;28;19985;-76
2021/04/09 11:10:37;;;;;;;;;;;;;;;10.83;57.20;98778.22;5037570;28;19975;-77
2021/04/09 11:13:03;;;;;;;;;;;;;;;10.87;60.43;98779.75;5038043;28;20670;-77
2021/04/09 11:15:47;;;;;;;;;;;;;;;10.61;62.21;98772.16;5023139;28;19923;-78
2021/04/09 11:18:16;;;;;;;;;;;;;;;10.71;60.95;98762.34;5023714;28;19928;-76
2021/04/09 11:20:45;;;;;;;;;;;;;;;10.24;60.82;98768.22;5036174;28;19921;-77
2021/04/09 11:23:13;;;;;;;;;;;;;;;10.15;61.00;98771.13;5058325;28;20590;-76
2021/04/09 11:25:39;;;;;;;;;;;;;;;9.82;61.75;98774.78;5037777;28;19920;-77
2021/04/09 11:28:05;;;;;;;;;;;;;;;9.90;62.03;98779.69;5040004;28;20592;-76
2021/04/09 11:30:50;;;;;;;;;;;;;;;10.18;61.59;98763.31;5037359;28;19920;-79
2021/04/09 11:33:17;;;;;;;;;;;;;;;9.76;62.15;98766.41;5053407;28;19956;-77
2021/04/09 11:35:42;;;;;;;;;;;;;;;10.26;60.02;98748.44;5056531;28;19956;-77
2021/04/09 11:38:13;;;;;;;;;;;;;;;10.57;58.55;98748.22;5057875;28;19923;-77
2021/04/09 11:40:41;;;;;;;;;;;;;;;11.57;57.90;98752.19;5054146;28;19928;-78
2021/04/09 11:43:07;;;;;;;;;;;;;;;10.61;58.72;98751.56;5057284;28;20042;-78
2021/04/09 11:45:38;;;;;;;;;;;;;;;10.82;57.36;98755.06;5057990;28;20077;-77
2021/04/09 11:48:21;;;;;;;;;;;;;;;11.55;55.69;98741.09;5056701;28;19920;-78
2021/04/09 11:50:46;;;;;;;;;;;;;;;11.55;51.74;98741.09;5014840;28;19924;-77
2021/04/09 11:53:11;;;;;;;;;;;;;;;11.76;57.90;98748.84;5057153;28;19931;-78
2021/04/09 11:55:38;;;;;;;;;;;;;;;11.49;54.71;98741.31;5039406;28;19931;-78
2021/04/09 11:58:03;;;;;;;;;;;;;;;11.42;54.51;98745.88;5038356;28;19923;-78
2021/04/09 12:00:29;;;;;;;;;;;;;;;11.18;54.11;98745.13;5039906;28;19920;-76
2021/04/09 12:02:59;;;;;;;;;;;;;;;10.57;55.98;98752.53;5037472;28;20540;-78
2021/04/09 12:05:28;;;;;;;;;;;;;;;11.35;57.17;98746.19;5030269;28;20658;-78
2021/04/09 12:07:54;;;;;;;;;;;;;;;12.04;53.53;98738.25;5039702;28;19923;-77
2021/04/09 12:10:19;;;;;;;;;;;;;;;11.61;56.29;98735.69;5038890;28;19984;-77
2021/04/09 12:12:45;;;;;;;;;;;;;;;10.98;56.29;98734.72;5053855;28;19973;-77
2021/04/09 12:15:11;;;;;;;;;;;;;;;11.20;54.05;98730.44;5038315;28;19938;-77
2021/04/09 12:17:36;;;;;;;;;;;;;;;11.93;54.87;98725.81;5038482;28;19916;-77
2021/04/09 12:20:04;;;;;;;;;;;;;;;12.08;55.23;98735.47;5054185;28;19926;-76
2021/04/09 12:22:29;;;;;;;;;;;;;;;11.47;52.63;98737.97;5036913;28;20489;-77
2021/04/09 12:24:55;;;;;;;;;;;;;;;11.87;55.40;98737.22;5037522;28;19935;-76
2021/04/09 12:27:20;;;;;;;;;;;;;;;12.33;51.57;98726.69;5024684;28;20003;-78
2021/04/09 12:29:45;;;;;;;;;;;;;;;11.36;54.33;98747.84;5026457;28;19920;-77
2021/04/09 12:32:11;;;;;;;;;;;;;;;11.62;53.07;98741.69;5024397;28;20270;-78
2021/04/09 12:34:36;;;;;;;;;;;;;;;12.07;51.29;98726.06;5039729;28;19925;-78
2021/04/09 12:37:02;;;;;;;;;;;;;;;12.73;50.92;98728.34;5037155;28;19952;-77
2021/04/09 12:39:27;;;;;;;;;;;;;;;11.98;52.16;98723.88;5038963;28;19916;-77
2021/04/09 12:41:53;;;;;;;;;;;;;;;12.28;52.66;98726.06;5038655;28;19967;-78
2021/04/09 12:44:19;;;;;;;;;;;;;;;12.03;54.58;98714.19;5037681;28;19958;-78
2021/04/09 12:46:47;;;;;;;;;;;;;;;11.87;53.01;98723.44;5021605;28;19921;-77
2021/04/09 12:49:13;;;;;;;;;;;;;;;11.58;51.96;98710.00;5014388;28;19917;-78
2021/04/09 12:51:38;;;;;;;;;;;;;;;11.04;52.04;98711.31;5038359;28;20623;-78
2021/04/09 12:54:04;;;;;;;;;;;;;;;10.84;55.37;98702.59;5027287;28;19932;-77